sensor_id;sensor_type;location;lat;lon;timestamp;temperature;humidity
9810;DHT22;4944;52.514;13.192;2022-11-09T00:01:36;13.30;99.90
9810;DHT22;4944;52.514;13.192;2022-11-09T00:04:06;13.30;99.90
9810;DHT22;4944;52.514;13.192;2022-11-09T00:06:34;13.30;99.90
9810;DHT22;4944;52.514;13.192;2022-11-09T00:09:03;13.20;99.90
9810;DHT22;4944;52.514;13.192;2022-11-09T00:11:30;13.20;99.90
9810;DHT22;4944;52.514;13.192;2022-11-09T00:13:56;13.20;99.90
9810;DHT22;4944;52.514;13.192;2022-11-09T00:16:23;13.20;99.90
9810;DHT22;4944;52.514;13.192;2022-11-09T00:18:50;13.20;99.90
9810;DHT22;4944;52.514;13.192;2022-11-09T00:21:21;13.20;99.90
9810;DHT22;4944;52.514;13.192;2022-11-09T00:23:48;13.20;99.90
9810;DHT22;4944;52.514;13.192;2022-11-09T00:26:16;13.20;99.90
9810;DHT22;4944;52.514;13.192;2022-11-09T00:28:43;13.20;99.90
9810;DHT22;4944;52.514;13.192;2022-11-09T00:31:12;13.20;99.90
9810;DHT22;4944;52.514;13.192;2022-11-09T00:33:39;13.10;99.90
9810;DHT22;4944;52.514;13.192;2022-11-09T00:36:09;13.20;99.90
9810;DHT22;4944;52.514;13.192;2022-11-09T00:38:38;13.10;99.90
9810;DHT22;4944;52.514;13.192;2022-11-09T00:41:06;13.10;99.90
9810;DHT22;4944;52.514;13.192;2022-11-09T00:43:33;13.10;99.90
9810;DHT22;4944;52.514;13.192;2022-11-09T00:46:00;13.10;99.90
9810;DHT22;4944;52.514;13.192;2022-11-09T00:48:27;13.10;99.90
9810;DHT22;4944;52.514;13.192;2022-11-09T00:50:55;13.10;99.90
9810;DHT22;4944;52.514;13.192;2022-11-09T00:53:22;13.10;99.90
9810;DHT22;4944;52.514;13.192;2022-11-09T00:55:57;13.10;99.90
9810;DHT22;4944;52.514;13.192;2022-11-09T00:58:24;13.10;99.90
9810;DHT22;4944;52.514;13.192;2022-11-09T01:00:52;13.10;99.90
9810;DHT22;4944;52.514;13.192;2022-11-09T01:03:19;13.10;99.90
9810;DHT22;4944;52.514;13.192;2022-11-09T01:05:46;13.10;99.90
9810;DHT22;4944;52.514;13.192;2022-11-09T01:08:13;13.10;99.90
9810;DHT22;4944;52.514;13.192;2022-11-09T01:10:41;13.10;99.90
9810;DHT22;4944;52.514;13.192;2022-11-09T01:13:11;13.10;99.90
9810;DHT22;4944;52.514;13.192;2022-11-09T01:15:42;13.10;99.90
9810;DHT22;4944;52.514;13.192;2022-11-09T01:18:09;13.10;99.90
9810;DHT22;4944;52.514;13.192;2022-11-09T01:20:40;13.00;99.90
9810;DHT22;4944;52.514;13.192;2022-11-09T01:23:07;13.10;99.90
9810;DHT22;4944;52.514;13.192;2022-11-09T01:25:34;13.10;99.90
9810;DHT22;4944;52.514;13.192;2022-11-09T01:28:01;13.00;99.90
9810;DHT22;4944;52.514;13.192;2022-11-09T01:30:31;13.10;99.90
9810;DHT22;4944;52.514;13.192;2022-11-09T01:32:58;13.10;99.90
9810;DHT22;4944;52.514;13.192;2022-11-09T01:35:25;13.00;99.90
9810;DHT22;4944;52.514;13.192;2022-11-09T01:37:52;13.00;99.90
9810;DHT22;4944;52.514;13.192;2022-11-09T01:40:19;13.00;99.90
9810;DHT22;4944;52.514;13.192;2022-11-09T01:42:45;13.00;99.90
9810;DHT22;4944;52.514;13.192;2022-11-09T01:45:24;13.00;99.90
9810;DHT22;4944;52.514;13.192;2022-11-09T01:47:58;13.10;99.90
9810;DHT22;4944;52.514;13.192;2022-11-09T01:50:37;13.10;99.90
9810;DHT22;4944;52.514;13.192;2022-11-09T01:53:08;13.00;99.90
9810;DHT22;4944;52.514;13.192;2022-11-09T01:55:38;13.00;99.90
9810;DHT22;4944;52.514;13.192;2022-11-09T01:58:07;12.90;99.90
9810;DHT22;4944;52.514;13.192;2022-11-09T02:00:34;13.00;99.90
9810;DHT22;4944;52.514;13.192;2022-11-09T02:03:08;12.90;99.90
9810;DHT22;4944;52.514;13.192;2022-11-09T02:05:37;12.90;99.90
9810;DHT22;4944;52.514;13.192;2022-11-09T02:08:06;12.90;99.90
9810;DHT22;4944;52.514;13.192;2022-11-09T02:10:39;12.90;99.90
9810;DHT22;4944;52.514;13.192;2022-11-09T02:13:08;12.90;99.90
9810;DHT22;4944;52.514;13.192;2022-11-09T02:15:36;12.90;99.90
9810;DHT22;4944;52.514;13.192;2022-11-09T02:18:05;12.90;99.90
9810;DHT22;4944;52.514;13.192;2022-11-09T02:20:44;12.80;99.90
9810;DHT22;4944;52.514;13.192;2022-11-09T02:23:12;12.80;99.90
9810;DHT22;4944;52.514;13.192;2022-11-09T02:25:38;12.80;99.90
9810;DHT22;4944;52.514;13.192;2022-11-09T02:28:06;12.80;99.90
9810;DHT22;4944;52.514;13.192;2022-11-09T02:30:33;12.80;99.90
9810;DHT22;4944;52.514;13.192;2022-11-09T02:33:01;12.80;99.90
9810;DHT22;4944;52.514;13.192;2022-11-09T02:35:27;12.80;99.90
9810;DHT22;4944;52.514;13.192;2022-11-09T02:37:55;12.80;99.90
9810;DHT22;4944;52.514;13.192;2022-11-09T02:40:25;12.80;99.90
9810;DHT22;4944;52.514;13.192;2022-11-09T02:42:54;12.80;99.90
9810;DHT22;4944;52.514;13.192;2022-11-09T02:45:21;12.80;99.90
9810;DHT22;4944;52.514;13.192;2022-11-09T02:47:48;12.80;99.90
9810;DHT22;4944;52.514;13.192;2022-11-09T02:50:15;12.70;99.90
9810;DHT22;4944;52.514;13.192;2022-11-09T02:52:42;12.70;99.90
9810;DHT22;4944;52.514;13.192;2022-11-09T02:55:10;12.70;99.90
9810;DHT22;4944;52.514;13.192;2022-11-09T02:57:37;12.70;99.90
9810;DHT22;4944;52.514;13.192;2022-11-09T03:00:05;12.70;99.90
9810;DHT22;4944;52.514;13.192;2022-11-09T03:02:32;12.70;99.90
9810;DHT22;4944;52.514;13.192;2022-11-09T03:04:59;12.80;99.90
9810;DHT22;4944;52.514;13.192;2022-11-09T03:07:26;12.80;99.90
9810;DHT22;4944;52.514;13.192;2022-11-09T03:09:52;12.70;99.90
9810;DHT22;4944;52.514;13.192;2022-11-09T03:12:21;12.70;99.90
9810;DHT22;4944;52.514;13.192;2022-11-09T03:14:57;12.70;99.90
9810;DHT22;4944;52.514;13.192;2022-11-09T03:17:24;12.70;99.90
9810;DHT22;4944;52.514;13.192;2022-11-09T03:19:51;12.70;99.90
9810;DHT22;4944;52.514;13.192;2022-11-09T03:22:18;12.70;99.90
9810;DHT22;4944;52.514;13.192;2022-11-09T03:24:44;12.70;99.90
9810;DHT22;4944;52.514;13.192;2022-11-09T03:27:11;12.80;99.90
9810;DHT22;4944;52.514;13.192;2022-11-09T03:29:40;12.80;99.90
9810;DHT22;4944;52.514;13.192;2022-11-09T03:32:07;12.80;99.90
9810;DHT22;4944;52.514;13.192;2022-11-09T03:34:34;12.80;99.90
9810;DHT22;4944;52.514;13.192;2022-11-09T03:37:00;12.80;99.90
9810;DHT22;4944;52.514;13.192;2022-11-09T03:39:27;12.80;99.90
9810;DHT22;4944;52.514;13.192;2022-11-09T03:41:54;12.80;99.90
9810;DHT22;4944;52.514;13.192;2022-11-09T03:44:21;12.80;99.90
9810;DHT22;4944;52.514;13.192;2022-11-09T03:46:49;12.80;99.90
9810;DHT22;4944;52.514;13.192;2022-11-09T03:49:16;12.80;99.90
9810;DHT22;4944;52.514;13.192;2022-11-09T03:51:43;12.80;99.90
9810;DHT22;4944;52.514;13.192;2022-11-09T03:54:09;12.80;99.90
9810;DHT22;4944;52.514;13.192;2022-11-09T03:56:36;12.80;99.90
9810;DHT22;4944;52.514;13.192;2022-11-09T03:59:03;12.90;99.90
9810;DHT22;4944;52.514;13.192;2022-11-09T04:01:30;12.80;99.90
9810;DHT22;4944;52.514;13.192;2022-11-09T04:03:58;12.90;99.90
9810;DHT22;4944;52.514;13.192;2022-11-09T04:06:25;12.80;99.90
9810;DHT22;4944;52.514;13.192;2022-11-09T04:08:51;12.90;99.90
9810;DHT22;4944;52.514;13.192;2022-11-09T04:11:18;12.80;99.90
9810;DHT22;4944;52.514;13.192;2022-11-09T04:13:47;12.80;99.90
9810;DHT22;4944;52.514;13.192;2022-11-09T04:16:14;12.80;99.90
9810;DHT22;4944;52.514;13.192;2022-11-09T04:18:40;12.80;99.90
9810;DHT22;4944;52.514;13.192;2022-11-09T04:21:08;12.80;99.90
9810;DHT22;4944;52.514;13.192;2022-11-09T04:23:35;12.80;99.90
9810;DHT22;4944;52.514;13.192;2022-11-09T04:26:02;12.90;99.90
9810;DHT22;4944;52.514;13.192;2022-11-09T04:28:29;12.80;99.90
9810;DHT22;4944;52.514;13.192;2022-11-09T04:30:59;12.80;99.90
9810;DHT22;4944;52.514;13.192;2022-11-09T04:33:26;12.90;99.90
9810;DHT22;4944;52.514;13.192;2022-11-09T04:35:53;12.80;99.90
9810;DHT22;4944;52.514;13.192;2022-11-09T04:38:21;12.90;99.90
9810;DHT22;4944;52.514;13.192;2022-11-09T04:40:48;12.80;99.90
9810;DHT22;4944;52.514;13.192;2022-11-09T04:43:15;12.80;99.90
9810;DHT22;4944;52.514;13.192;2022-11-09T04:45:42;12.80;99.90
9810;DHT22;4944;52.514;13.192;2022-11-09T04:48:09;12.80;99.90
9810;DHT22;4944;52.514;13.192;2022-11-09T04:50:36;12.80;99.90
9810;DHT22;4944;52.514;13.192;2022-11-09T04:53:05;12.80;99.90
9810;DHT22;4944;52.514;13.192;2022-11-09T04:55:34;12.80;99.90
9810;DHT22;4944;52.514;13.192;2022-11-09T04:58:01;12.80;99.90
9810;DHT22;4944;52.514;13.192;2022-11-09T05:00:28;12.80;99.90
9810;DHT22;4944;52.514;13.192;2022-11-09T05:02:57;12.80;99.90
9810;DHT22;4944;52.514;13.192;2022-11-09T05:05:24;12.80;99.90
9810;DHT22;4944;52.514;13.192;2022-11-09T05:07:51;12.90;99.90
9810;DHT22;4944;52.514;13.192;2022-11-09T05:10:17;12.80;99.90
9810;DHT22;4944;52.514;13.192;2022-11-09T05:12:45;12.80;99.90
9810;DHT22;4944;52.514;13.192;2022-11-09T05:15:12;12.80;99.90
9810;DHT22;4944;52.514;13.192;2022-11-09T05:17:39;12.80;99.90
9810;DHT22;4944;52.514;13.192;2022-11-09T05:20:07;12.80;99.90
9810;DHT22;4944;52.514;13.192;2022-11-09T05:22:38;12.90;99.90
9810;DHT22;4944;52.514;13.192;2022-11-09T05:25:22;12.90;99.90
9810;DHT22;4944;52.514;13.192;2022-11-09T05:27:50;12.80;99.90
9810;DHT22;4944;52.514;13.192;2022-11-09T05:30:17;12.90;99.90
9810;DHT22;4944;52.514;13.192;2022-11-09T05:32:44;12.80;99.90
9810;DHT22;4944;52.514;13.192;2022-11-09T05:35:11;12.80;99.90
9810;DHT22;4944;52.514;13.192;2022-11-09T05:37:38;12.80;99.90
9810;DHT22;4944;52.514;13.192;2022-11-09T05:40:06;12.80;99.90
9810;DHT22;4944;52.514;13.192;2022-11-09T05:42:33;12.80;99.90
9810;DHT22;4944;52.514;13.192;2022-11-09T05:45:01;12.80;99.90
9810;DHT22;4944;52.514;13.192;2022-11-09T05:47:28;12.80;99.90
9810;DHT22;4944;52.514;13.192;2022-11-09T05:49:55;12.80;99.90
9810;DHT22;4944;52.514;13.192;2022-11-09T05:52:21;12.80;99.90
9810;DHT22;4944;52.514;13.192;2022-11-09T05:54:48;12.80;99.90
9810;DHT22;4944;52.514;13.192;2022-11-09T05:57:15;12.80;99.90
9810;DHT22;4944;52.514;13.192;2022-11-09T05:59:42;12.80;99.90
9810;DHT22;4944;52.514;13.192;2022-11-09T06:02:10;12.80;99.90
9810;DHT22;4944;52.514;13.192;2022-11-09T06:04:36;12.80;99.90
9810;DHT22;4944;52.514;13.192;2022-11-09T06:07:03;12.80;99.90
9810;DHT22;4944;52.514;13.192;2022-11-09T06:09:30;12.80;99.90
9810;DHT22;4944;52.514;13.192;2022-11-09T06:11:57;12.80;99.90
9810;DHT22;4944;52.514;13.192;2022-11-09T06:14:23;12.80;99.90
9810;DHT22;4944;52.514;13.192;2022-11-09T06:16:52;12.80;99.90
9810;DHT22;4944;52.514;13.192;2022-11-09T06:19:20;12.80;99.90
9810;DHT22;4944;52.514;13.192;2022-11-09T06:21:49;12.80;99.90
9810;DHT22;4944;52.514;13.192;2022-11-09T06:24:16;12.80;99.90
9810;DHT22;4944;52.514;13.192;2022-11-09T06:26:43;12.80;99.90
9810;DHT22;4944;52.514;13.192;2022-11-09T06:29:10;12.80;99.90
9810;DHT22;4944;52.514;13.192;2022-11-09T06:31:36;12.80;99.90
9810;DHT22;4944;52.514;13.192;2022-11-09T06:34:03;12.80;99.90
9810;DHT22;4944;52.514;13.192;2022-11-09T06:36:31;12.80;99.90
9810;DHT22;4944;52.514;13.192;2022-11-09T06:38:58;12.80;99.90
9810;DHT22;4944;52.514;13.192;2022-11-09T06:41:25;12.80;99.90
9810;DHT22;4944;52.514;13.192;2022-11-09T06:43:51;12.80;99.90
9810;DHT22;4944;52.514;13.192;2022-11-09T06:46:18;12.80;99.90
9810;DHT22;4944;52.514;13.192;2022-11-09T06:48:45;12.80;99.90
9810;DHT22;4944;52.514;13.192;2022-11-09T06:51:12;12.80;99.90
9810;DHT22;4944;52.514;13.192;2022-11-09T06:53:41;12.80;99.90
9810;DHT22;4944;52.514;13.192;2022-11-09T06:56:07;12.80;99.90
9810;DHT22;4944;52.514;13.192;2022-11-09T06:58:35;12.80;99.90
9810;DHT22;4944;52.514;13.192;2022-11-09T07:01:06;12.80;99.90
9810;DHT22;4944;52.514;13.192;2022-11-09T07:03:33;12.70;99.90
9810;DHT22;4944;52.514;13.192;2022-11-09T07:06:03;12.70;99.90
9810;DHT22;4944;52.514;13.192;2022-11-09T07:08:30;12.70;99.90
9810;DHT22;4944;52.514;13.192;2022-11-09T07:11:03;12.70;99.90
9810;DHT22;4944;52.514;13.192;2022-11-09T07:13:30;12.60;99.90
9810;DHT22;4944;52.514;13.192;2022-11-09T07:15:57;12.60;99.90
9810;DHT22;4944;52.514;13.192;2022-11-09T07:18:23;12.60;99.90
9810;DHT22;4944;52.514;13.192;2022-11-09T07:20:50;12.50;99.90
9810;DHT22;4944;52.514;13.192;2022-11-09T07:23:17;12.50;99.90
9810;DHT22;4944;52.514;13.192;2022-11-09T07:25:44;12.40;99.90
9810;DHT22;4944;52.514;13.192;2022-11-09T07:28:12;12.50;99.90
9810;DHT22;4944;52.514;13.192;2022-11-09T07:30:39;12.50;99.90
9810;DHT22;4944;52.514;13.192;2022-11-09T07:33:12;12.40;99.90
9810;DHT22;4944;52.514;13.192;2022-11-09T07:35:39;12.50;99.90
9810;DHT22;4944;52.514;13.192;2022-11-09T07:38:06;12.50;99.90
9810;DHT22;4944;52.514;13.192;2022-11-09T07:40:33;12.30;99.90
9810;DHT22;4944;52.514;13.192;2022-11-09T07:43:01;12.30;99.90
9810;DHT22;4944;52.514;13.192;2022-11-09T07:45:30;12.30;99.90
9810;DHT22;4944;52.514;13.192;2022-11-09T07:47:58;12.40;99.90
9810;DHT22;4944;52.514;13.192;2022-11-09T07:50:25;12.40;99.90
9810;DHT22;4944;52.514;13.192;2022-11-09T07:52:53;12.40;99.90
9810;DHT22;4944;52.514;13.192;2022-11-09T07:55:20;12.40;99.90
9810;DHT22;4944;52.514;13.192;2022-11-09T07:57:47;12.50;99.90
9810;DHT22;4944;52.514;13.192;2022-11-09T08:00:15;12.50;99.90
9810;DHT22;4944;52.514;13.192;2022-11-09T08:02:47;12.50;99.90
9810;DHT22;4944;52.514;13.192;2022-11-09T08:05:14;12.50;99.90
9810;DHT22;4944;52.514;13.192;2022-11-09T08:07:41;12.50;99.90
9810;DHT22;4944;52.514;13.192;2022-11-09T08:10:09;12.50;99.90
9810;DHT22;4944;52.514;13.192;2022-11-09T08:12:35;12.50;99.90
9810;DHT22;4944;52.514;13.192;2022-11-09T08:15:03;12.50;99.90
9810;DHT22;4944;52.514;13.192;2022-11-09T08:17:30;12.50;99.90
9810;DHT22;4944;52.514;13.192;2022-11-09T08:19:58;12.50;99.90
9810;DHT22;4944;52.514;13.192;2022-11-09T08:22:28;12.50;99.90
9810;DHT22;4944;52.514;13.192;2022-11-09T08:24:54;12.50;99.90
9810;DHT22;4944;52.514;13.192;2022-11-09T08:27:21;12.50;99.90
9810;DHT22;4944;52.514;13.192;2022-11-09T08:29:48;12.50;99.90
9810;DHT22;4944;52.514;13.192;2022-11-09T08:32:15;12.50;99.90
9810;DHT22;4944;52.514;13.192;2022-11-09T08:34:45;12.50;99.90
9810;DHT22;4944;52.514;13.192;2022-11-09T08:37:14;12.50;99.90
9810;DHT22;4944;52.514;13.192;2022-11-09T08:39:40;12.50;99.90
9810;DHT22;4944;52.514;13.192;2022-11-09T08:42:07;12.50;99.90
9810;DHT22;4944;52.514;13.192;2022-11-09T08:44:34;12.50;99.90
9810;DHT22;4944;52.514;13.192;2022-11-09T08:47:01;12.50;99.90
9810;DHT22;4944;52.514;13.192;2022-11-09T08:49:27;12.40;99.90
9810;DHT22;4944;52.514;13.192;2022-11-09T08:51:54;12.40;99.90
9810;DHT22;4944;52.514;13.192;2022-11-09T08:54:24;12.50;99.90
9810;DHT22;4944;52.514;13.192;2022-11-09T08:56:53;12.40;99.90
9810;DHT22;4944;52.514;13.192;2022-11-09T08:59:21;12.40;99.90
9810;DHT22;4944;52.514;13.192;2022-11-09T09:01:48;12.50;99.90
9810;DHT22;4944;52.514;13.192;2022-11-09T09:04:14;12.50;99.90
9810;DHT22;4944;52.514;13.192;2022-11-09T09:06:41;12.50;99.90
9810;DHT22;4944;52.514;13.192;2022-11-09T09:09:08;12.50;99.90
9810;DHT22;4944;52.514;13.192;2022-11-09T09:11:36;12.60;99.90
9810;DHT22;4944;52.514;13.192;2022-11-09T09:14:03;12.50;99.90
9810;DHT22;4944;52.514;13.192;2022-11-09T09:16:30;12.50;99.90
9810;DHT22;4944;52.514;13.192;2022-11-09T09:18:56;12.60;99.90
9810;DHT22;4944;52.514;13.192;2022-11-09T09:21:23;12.60;99.90
9810;DHT22;4944;52.514;13.192;2022-11-09T09:23:53;12.60;99.90
9810;DHT22;4944;52.514;13.192;2022-11-09T09:26:20;12.60;99.90
9810;DHT22;4944;52.514;13.192;2022-11-09T09:28:49;12.70;99.90
9810;DHT22;4944;52.514;13.192;2022-11-09T09:31:17;12.80;99.90
9810;DHT22;4944;52.514;13.192;2022-11-09T09:33:43;12.90;99.90
9810;DHT22;4944;52.514;13.192;2022-11-09T09:36:15;13.00;99.90
9810;DHT22;4944;52.514;13.192;2022-11-09T09:38:43;13.00;99.90
9810;DHT22;4944;52.514;13.192;2022-11-09T09:41:17;13.10;99.90
9810;DHT22;4944;52.514;13.192;2022-11-09T09:43:51;13.20;99.90
9810;DHT22;4944;52.514;13.192;2022-11-09T09:46:22;13.20;99.90
9810;DHT22;4944;52.514;13.192;2022-11-09T09:48:53;13.30;99.90
9810;DHT22;4944;52.514;13.192;2022-11-09T09:51:26;13.40;99.90
9810;DHT22;4944;52.514;13.192;2022-11-09T09:53:58;13.40;99.90
9810;DHT22;4944;52.514;13.192;2022-11-09T09:56:29;13.30;99.90
9810;DHT22;4944;52.514;13.192;2022-11-09T09:59:02;13.30;99.90
9810;DHT22;4944;52.514;13.192;2022-11-09T10:01:36;13.30;99.90
9810;DHT22;4944;52.514;13.192;2022-11-09T10:04:12;13.30;99.90
9810;DHT22;4944;52.514;13.192;2022-11-09T10:06:54;13.40;99.90
9810;DHT22;4944;52.514;13.192;2022-11-09T10:09:35;13.40;99.90
9810;DHT22;4944;52.514;13.192;2022-11-09T10:12:09;13.40;99.90
9810;DHT22;4944;52.514;13.192;2022-11-09T10:15:05;13.40;99.90
9810;DHT22;4944;52.514;13.192;2022-11-09T10:17:40;13.50;99.90
9810;DHT22;4944;52.514;13.192;2022-11-09T10:23:14;13.70;99.90
9810;DHT22;4944;52.514;13.192;2022-11-09T10:25:46;13.60;99.90
9810;DHT22;4944;52.514;13.192;2022-11-09T10:28:15;13.60;99.90
9810;DHT22;4944;52.514;13.192;2022-11-09T10:30:43;13.60;99.90
9810;DHT22;4944;52.514;13.192;2022-11-09T10:33:15;13.60;99.90
9810;DHT22;4944;52.514;13.192;2022-11-09T10:35:45;13.70;99.90
9810;DHT22;4944;52.514;13.192;2022-11-09T10:38:19;13.90;99.90
9810;DHT22;4944;52.514;13.192;2022-11-09T10:40:51;14.00;99.90
9810;DHT22;4944;52.514;13.192;2022-11-09T10:43:18;14.20;99.90
9810;DHT22;4944;52.514;13.192;2022-11-09T10:45:56;14.20;99.90
9810;DHT22;4944;52.514;13.192;2022-11-09T10:48:30;14.30;99.90
9810;DHT22;4944;52.514;13.192;2022-11-09T10:50:57;14.30;99.90
9810;DHT22;4944;52.514;13.192;2022-11-09T10:53:25;14.40;99.90
9810;DHT22;4944;52.514;13.192;2022-11-09T10:55:53;14.50;99.90
9810;DHT22;4944;52.514;13.192;2022-11-09T10:58:30;14.60;99.90
9810;DHT22;4944;52.514;13.192;2022-11-09T11:01:01;14.70;99.90
9810;DHT22;4944;52.514;13.192;2022-11-09T11:03:29;14.80;99.90
9810;DHT22;4944;52.514;13.192;2022-11-09T11:05:58;14.80;99.90
9810;DHT22;4944;52.514;13.192;2022-11-09T11:08:30;14.90;99.90
9810;DHT22;4944;52.514;13.192;2022-11-09T11:11:13;15.00;99.90
9810;DHT22;4944;52.514;13.192;2022-11-09T11:13:41;15.00;99.90
9810;DHT22;4944;52.514;13.192;2022-11-09T11:16:32;15.10;99.90
9810;DHT22;4944;52.514;13.192;2022-11-09T11:19:00;15.00;99.90
9810;DHT22;4944;52.514;13.192;2022-11-09T11:21:28;14.80;99.90
9810;DHT22;4944;52.514;13.192;2022-11-09T11:24:12;14.80;99.90
9810;DHT22;4944;52.514;13.192;2022-11-09T11:26:45;14.70;99.90
9810;DHT22;4944;52.514;13.192;2022-11-09T11:29:30;14.80;99.90
9810;DHT22;4944;52.514;13.192;2022-11-09T11:31:59;14.90;99.90
9810;DHT22;4944;52.514;13.192;2022-11-09T11:34:26;15.00;99.90
9810;DHT22;4944;52.514;13.192;2022-11-09T11:37:03;15.10;99.90
9810;DHT22;4944;52.514;13.192;2022-11-09T11:39:42;15.20;99.90
9810;DHT22;4944;52.514;13.192;2022-11-09T11:42:28;15.10;99.90
9810;DHT22;4944;52.514;13.192;2022-11-09T11:45:06;15.10;99.90
9810;DHT22;4944;52.514;13.192;2022-11-09T11:47:46;15.10;99.90
9810;DHT22;4944;52.514;13.192;2022-11-09T11:50:31;15.10;99.90
9810;DHT22;4944;52.514;13.192;2022-11-09T11:53:07;15.20;99.90
9810;DHT22;4944;52.514;13.192;2022-11-09T11:55:56;15.30;99.90
9810;DHT22;4944;52.514;13.192;2022-11-09T11:58:39;15.50;99.90
9810;DHT22;4944;52.514;13.192;2022-11-09T12:01:21;15.80;99.90
9810;DHT22;4944;52.514;13.192;2022-11-09T12:04:02;15.80;99.90
9810;DHT22;4944;52.514;13.192;2022-11-09T12:06:56;16.00;99.90
9810;DHT22;4944;52.514;13.192;2022-11-09T12:09:51;16.10;99.90
9810;DHT22;4944;52.514;13.192;2022-11-09T12:12:33;16.10;99.90
9810;DHT22;4944;52.514;13.192;2022-11-09T12:15:20;16.00;99.90
9810;DHT22;4944;52.514;13.192;2022-11-09T12:17:55;15.90;99.90
9810;DHT22;4944;52.514;13.192;2022-11-09T12:20:32;15.90;99.90
9810;DHT22;4944;52.514;13.192;2022-11-09T12:23:22;15.90;99.90
9810;DHT22;4944;52.514;13.192;2022-11-09T12:26:02;16.10;99.90
9810;DHT22;4944;52.514;13.192;2022-11-09T12:28:49;16.10;99.90
9810;DHT22;4944;52.514;13.192;2022-11-09T12:31:29;16.30;99.90
9810;DHT22;4944;52.514;13.192;2022-11-09T12:34:00;16.60;99.90
9810;DHT22;4944;52.514;13.192;2022-11-09T12:36:35;16.70;99.90
9810;DHT22;4944;52.514;13.192;2022-11-09T12:39:06;16.80;99.90
9810;DHT22;4944;52.514;13.192;2022-11-09T12:41:37;16.80;99.90
9810;DHT22;4944;52.514;13.192;2022-11-09T12:44:10;16.80;99.90
9810;DHT22;4944;52.514;13.192;2022-11-09T12:46:42;16.80;99.90
9810;DHT22;4944;52.514;13.192;2022-11-09T12:49:31;16.70;99.90
9810;DHT22;4944;52.514;13.192;2022-11-09T12:52:01;16.70;99.90
9810;DHT22;4944;52.514;13.192;2022-11-09T12:54:29;16.70;99.90
9810;DHT22;4944;52.514;13.192;2022-11-09T12:56:58;16.70;99.90
9810;DHT22;4944;52.514;13.192;2022-11-09T12:59:34;16.70;99.90
9810;DHT22;4944;52.514;13.192;2022-11-09T13:02:03;16.70;99.90
9810;DHT22;4944;52.514;13.192;2022-11-09T13:04:31;16.70;99.90
9810;DHT22;4944;52.514;13.192;2022-11-09T13:07:25;16.70;99.90
9810;DHT22;4944;52.514;13.192;2022-11-09T13:09:54;16.60;99.90
9810;DHT22;4944;52.514;13.192;2022-11-09T13:12:32;16.50;99.90
9810;DHT22;4944;52.514;13.192;2022-11-09T13:15:21;16.40;99.90
9810;DHT22;4944;52.514;13.192;2022-11-09T13:17:56;16.30;99.90
9810;DHT22;4944;52.514;13.192;2022-11-09T13:20:45;16.30;99.90
9810;DHT22;4944;52.514;13.192;2022-11-09T13:23:41;16.10;99.90
9810;DHT22;4944;52.514;13.192;2022-11-09T13:26:21;16.10;99.90
9810;DHT22;4944;52.514;13.192;2022-11-09T13:29:20;16.10;99.90
9810;DHT22;4944;52.514;13.192;2022-11-09T13:34:57;16.00;99.90
9810;DHT22;4944;52.514;13.192;2022-11-09T13:37:46;16.00;99.90
9810;DHT22;4944;52.514;13.192;2022-11-09T13:40:40;15.90;99.90
9810;DHT22;4944;52.514;13.192;2022-11-09T13:43:16;15.90;99.90
9810;DHT22;4944;52.514;13.192;2022-11-09T13:45:45;15.80;99.90
9810;DHT22;4944;52.514;13.192;2022-11-09T13:48:40;15.70;99.90
9810;DHT22;4944;52.514;13.192;2022-11-09T13:51:10;15.70;99.90
9810;DHT22;4944;52.514;13.192;2022-11-09T13:53:56;15.60;99.90
9810;DHT22;4944;52.514;13.192;2022-11-09T13:56:31;15.60;99.90
9810;DHT22;4944;52.514;13.192;2022-11-09T13:59:05;15.60;99.90
9810;DHT22;4944;52.514;13.192;2022-11-09T14:01:40;15.70;99.90
9810;DHT22;4944;52.514;13.192;2022-11-09T14:04:20;15.80;99.90
9810;DHT22;4944;52.514;13.192;2022-11-09T14:06:47;15.80;99.90
9810;DHT22;4944;52.514;13.192;2022-11-09T14:09:16;15.80;99.90
9810;DHT22;4944;52.514;13.192;2022-11-09T14:11:59;15.80;99.90
9810;DHT22;4944;52.514;13.192;2022-11-09T14:14:50;15.80;99.90
9810;DHT22;4944;52.514;13.192;2022-11-09T14:17:24;15.80;99.90
9810;DHT22;4944;52.514;13.192;2022-11-09T14:20:01;15.90;99.90
9810;DHT22;4944;52.514;13.192;2022-11-09T14:22:33;15.80;99.90
9810;DHT22;4944;52.514;13.192;2022-11-09T14:25:04;15.80;99.90
9810;DHT22;4944;52.514;13.192;2022-11-09T14:27:45;15.80;99.90
9810;DHT22;4944;52.514;13.192;2022-11-09T14:30:21;15.80;99.90
9810;DHT22;4944;52.514;13.192;2022-11-09T14:32:49;15.70;99.90
9810;DHT22;4944;52.514;13.192;2022-11-09T14:35:20;15.70;99.90
9810;DHT22;4944;52.514;13.192;2022-11-09T14:37:48;15.60;99.90
9810;DHT22;4944;52.514;13.192;2022-11-09T14:40:18;15.60;99.90
9810;DHT22;4944;52.514;13.192;2022-11-09T14:42:48;15.60;99.90
9810;DHT22;4944;52.514;13.192;2022-11-09T14:45:16;15.50;99.90
9810;DHT22;4944;52.514;13.192;2022-11-09T14:47:45;15.40;99.90
9810;DHT22;4944;52.514;13.192;2022-11-09T14:50:16;15.30;99.90
9810;DHT22;4944;52.514;13.192;2022-11-09T14:52:44;15.30;99.90
9810;DHT22;4944;52.514;13.192;2022-11-09T14:55:13;15.20;99.90
9810;DHT22;4944;52.514;13.192;2022-11-09T14:57:40;15.20;99.90
9810;DHT22;4944;52.514;13.192;2022-11-09T15:00:29;15.20;99.90
9810;DHT22;4944;52.514;13.192;2022-11-09T15:02:58;15.10;99.90
9810;DHT22;4944;52.514;13.192;2022-11-09T15:05:37;15.00;99.90
9810;DHT22;4944;52.514;13.192;2022-11-09T15:08:11;15.00;99.90
9810;DHT22;4944;52.514;13.192;2022-11-09T15:10:40;15.00;99.90
9810;DHT22;4944;52.514;13.192;2022-11-09T15:13:07;14.90;99.90
9810;DHT22;4944;52.514;13.192;2022-11-09T15:15:35;14.90;99.90
9810;DHT22;4944;52.514;13.192;2022-11-09T15:18:03;14.80;99.90
9810;DHT22;4944;52.514;13.192;2022-11-09T15:20:32;14.80;99.90
9810;DHT22;4944;52.514;13.192;2022-11-09T15:23:01;14.80;99.90
9810;DHT22;4944;52.514;13.192;2022-11-09T15:25:31;14.70;99.90
9810;DHT22;4944;52.514;13.192;2022-11-09T15:30:46;14.60;99.90
9810;DHT22;4944;52.514;13.192;2022-11-09T15:33:23;14.60;99.90
9810;DHT22;4944;52.514;13.192;2022-11-09T15:35:52;14.60;99.90
9810;DHT22;4944;52.514;13.192;2022-11-09T15:38:28;14.60;99.90
9810;DHT22;4944;52.514;13.192;2022-11-09T15:40:55;14.60;99.90
9810;DHT22;4944;52.514;13.192;2022-11-09T15:43:22;14.50;99.90
9810;DHT22;4944;52.514;13.192;2022-11-09T15:45:50;14.50;99.90
9810;DHT22;4944;52.514;13.192;2022-11-09T15:48:17;14.50;99.90
9810;DHT22;4944;52.514;13.192;2022-11-09T15:50:44;14.50;99.90
9810;DHT22;4944;52.514;13.192;2022-11-09T15:53:12;14.50;99.90
9810;DHT22;4944;52.514;13.192;2022-11-09T15:55:40;14.40;99.90
9810;DHT22;4944;52.514;13.192;2022-11-09T15:58:09;14.40;99.90
9810;DHT22;4944;52.514;13.192;2022-11-09T16:00:37;14.40;99.90
9810;DHT22;4944;52.514;13.192;2022-11-09T16:03:05;14.30;99.90
9810;DHT22;4944;52.514;13.192;2022-11-09T16:05:32;14.30;99.90
9810;DHT22;4944;52.514;13.192;2022-11-09T16:07:59;14.30;99.90
9810;DHT22;4944;52.514;13.192;2022-11-09T16:10:25;14.30;99.90
9810;DHT22;4944;52.514;13.192;2022-11-09T16:12:54;14.20;99.90
9810;DHT22;4944;52.514;13.192;2022-11-09T16:15:22;14.20;99.90